KCHS/CHS METAR and TAF weather

Enter ICAO airport designator
Station Type Date Time Source
KCHS METAR 2019/04/22 23:56 UTC NOAA

KCHS 222356Z 19007KT 10SM CLR 18/11 A3013 RMK AO2 SLP200 T01780106 10256 20178 53006


Station Type Date Time Source
KCHS Decoded METAR 2019/04/22 23:56 UTC NOAA

CHARLESTON INT'L AIRPORT, SC, United States (KCHS) 32-54N 080-02W 13M
Apr 22, 2019 - 07:56 PM EDT / 2019.04.22 2356 UTC
Wind: from the S (190 degrees) at 8 MPH (7 KT):0
Visibility: 10 mile(s):0
Sky conditions: clear
Temperature: 64.0 F (17.8 C)
Dew Point: 51.1 F (10.6 C)
Relative Humidity: 62%
Pressure (altimeter): 30.13 in. Hg (1020 hPa)
Pressure tendency: 0.02 inches (0.6 hPa) higher than three hours ago
ob: KCHS 222356Z 19007KT 10SM CLR 18/11 A3013 RMK AO2 SLP200 T01780106 10256 20178 53006
cycle: 0

Station Type Date Time Source
KCHS TAF 2019/04/22 18:46 UTC NOAA

TAF KCHS 221738Z 2218/2318 31007KT P6SM SKC
FM222200 VRB05KT P6SM SKC

Example: see airport list